Time;durP1;ratioP1;P1;durP2;ratioP2;P2;SDS_P1;SDS_P2;PMS_P1;PMS_P2;Temp;Humidity;BMP_temperature;BMP_pressure;BME280_temperature;BME280_humidity;BME280_pressure;Samples;Min_cycle;Max_cycle;Signal;HPM_P1;HPM_P2
2021/04/07 00:00:38;;;;;;;3.88;2.10;;;0.70;99.90;;;;;;5040030;28;20139;-77
2021/04/07 00:03:06;;;;;;;7.72;2.00;;;0.90;99.90;;;;;;5039737;28;20105;-76
2021/04/07 00:05:36;;;;;;;3.97;1.63;;;0.90;99.90;;;;;;5043965;28;20531;-76
2021/04/07 00:08:03;;;;;;;3.42;1.83;;;0.80;99.90;;;;;;5039092;28;20123;-77
2021/04/07 00:10:39;;;;;;;5.93;2.80;;;0.70;99.90;;;;;;5050152;28;20101;-76
2021/04/07 00:13:06;;;;;;;4.95;1.88;;;0.50;99.90;;;;;;5035220;28;20105;-76
2021/04/07 00:15:32;;;;;;;3.47;1.90;;;0.40;99.90;;;;;;5038842;28;20377;-77
2021/04/07 00:17:59;;;;;;;4.25;2.35;;;0.50;99.90;;;;;;5046906;28;20475;-76
2021/04/07 00:20:26;;;;;;;3.15;1.98;;;0.50;99.90;;;;;;5031911;28;20187;-76
2021/04/07 00:22:52;;;;;;;3.65;1.83;;;0.30;99.90;;;;;;5014677;28;20547;-76
2021/04/07 00:25:19;;;;;;;4.15;2.20;;;0.40;99.90;;;;;;5064097;28;20120;-76
2021/04/07 00:27:52;;;;;;;4.38;2.15;;;0.60;99.90;;;;;;5050580;28;20069;-76
2021/04/07 00:30:19;;;;;;;3.45;2.10;;;0.70;99.90;;;;;;5035014;28;20097;-76
2021/04/07 00:32:45;;;;;;;4.28;1.42;;;0.70;99.90;;;;;;5033500;28;20116;-76
2021/04/07 00:35:11;;;;;;;3.28;1.90;;;0.60;99.90;;;;;;5034671;28;20561;-76
2021/04/07 00:37:39;;;;;;;3.40;2.00;;;0.50;99.90;;;;;;5044427;28;20730;-76
2021/04/07 00:40:06;;;;;;;4.35;1.90;;;0.50;99.90;;;;;;5033514;28;20132;-76
2021/04/07 00:42:33;;;;;;;3.35;1.77;;;0.40;99.90;;;;;;5037537;28;20077;-76
2021/04/07 00:44:59;;;;;;;4.70;2.15;;;0.50;99.90;;;;;;5032789;28;21864;-76
2021/04/07 00:47:25;;;;;;;3.10;2.05;;;0.40;99.90;;;;;;5044108;28;20085;-76
2021/04/07 00:49:50;;;;;;;5.78;1.90;;;0.50;99.90;;;;;;5045598;28;20084;-76
2021/04/07 00:52:16;;;;;;;3.67;1.92;;;0.50;99.90;;;;;;5035994;28;20128;-76
2021/04/07 00:54:42;;;;;;;2.40;1.75;;;0.40;99.90;;;;;;5032020;28;20646;-76
2021/04/07 00:57:08;;;;;;;8.88;1.77;;;0.50;99.90;;;;;;5035123;28;20151;-76
2021/04/07 00:59:34;;;;;;;2.35;1.90;;;0.70;99.90;;;;;;5037815;28;21665;-76
2021/04/07 01:02:00;;;;;;;2.90;1.55;;;0.50;99.90;;;;;;5051319;28;20089;-76
2021/04/07 01:04:25;;;;;;;4.32;2.05;;;0.50;99.90;;;;;;5043724;28;20081;-76
2021/04/07 01:06:52;;;;;;;6.40;1.90;;;0.60;99.90;;;;;;5044145;28;20078;-76
2021/04/07 01:09:18;;;;;;;2.33;1.73;;;0.40;99.90;;;;;;5017624;28;20116;-76
2021/04/07 01:11:44;;;;;;;2.03;1.83;;;0.60;99.90;;;;;;5033234;28;20611;-76
2021/04/07 01:14:10;;;;;;;4.35;2.10;;;0.80;99.90;;;;;;5037475;28;20062;-76
2021/04/07 01:16:37;;;;;;;3.33;2.35;;;0.40;99.90;;;;;;5045116;28;20070;-76
2021/04/07 01:19:03;;;;;;;2.90;1.90;;;0.40;99.90;;;;;;5035377;28;20077;-76
2021/04/07 01:21:29;;;;;;;2.35;1.50;;;0.50;99.90;;;;;;5031654;28;20101;-76
2021/04/07 01:23:54;;;;;;;4.03;2.00;;;0.50;99.90;;;;;;5025833;28;20070;-76
2021/04/07 01:26:20;;;;;;;3.47;1.85;;;0.50;99.90;;;;;;5043997;28;20061;-76
2021/04/07 01:28:45;;;;;;;2.67;1.60;;;0.40;99.90;;;;;;5030690;28;20082;-76
2021/04/07 01:31:11;;;;;;;3.97;2.45;;;0.50;99.90;;;;;;5030769;28;20097;-76
2021/04/07 01:33:37;;;;;;;5.68;2.30;;;0.50;99.90;;;;;;5047356;28;20160;-76
2021/04/07 01:36:03;;;;;;;3.05;2.08;;;0.70;99.90;;;;;;5029085;28;20104;-77
2021/04/07 01:38:29;;;;;;;6.45;2.30;;;0.70;99.90;;;;;;5045889;28;20153;-76
2021/04/07 01:40:56;;;;;;;2.47;2.03;;;0.70;99.90;;;;;;5033734;28;20108;-76
2021/04/07 01:43:23;;;;;;;3.13;1.60;;;0.60;99.90;;;;;;5023878;28;20078;-76
2021/04/07 01:45:50;;;;;;;4.22;2.17;;;0.80;99.90;;;;;;5047604;28;20070;-77
2021/04/07 01:48:17;;;;;;;3.90;2.38;;;0.60;99.90;;;;;;5028355;28;20132;-76
2021/04/07 01:50:45;;;;;;;3.50;2.00;;;0.60;99.90;;;;;;5045887;28;20101;-76
2021/04/07 01:53:12;;;;;;;2.92;2.30;;;0.60;99.90;;;;;;5034442;28;20089;-76
2021/04/07 01:55:37;;;;;;;3.40;2.83;;;0.60;99.90;;;;;;5031095;28;20703;-77
2021/04/07 01:58:04;;;;;;;4.03;2.30;;;0.60;99.90;;;;;;5031685;28;20073;-76
2021/04/07 02:00:30;;;;;;;3.03;2.13;;;0.50;99.90;;;;;;5038163;28;20097;-76
2021/04/07 02:02:55;;;;;;;4.28;2.30;;;0.60;99.90;;;;;;5033917;28;20153;-77
2021/04/07 02:05:21;;;;;;;4.38;2.33;;;0.50;99.90;;;;;;5038487;28;20097;-77
2021/04/07 02:07:46;;;;;;;2.85;2.28;;;0.50;99.90;;;;;;5030045;28;20579;-76
2021/04/07 02:10:13;;;;;;;2.97;2.10;;;0.50;99.90;;;;;;5031941;28;20143;-76
2021/04/07 02:12:39;;;;;;;2.75;2.35;;;0.30;99.90;;;;;;5041427;28;20084;-77
2021/04/07 02:15:15;;;;;;;2.30;1.80;;;0.30;99.90;;;;;;5043247;28;20073;-76
2021/04/07 02:17:41;;;;;;;1.75;1.52;;;0.30;99.90;;;;;;5030187;28;20521;-76
2021/04/07 02:20:09;;;;;;;4.00;2.10;;;0.20;99.90;;;;;;5045235;28;20184;-77
2021/04/07 02:22:35;;;;;;;2.58;1.90;;;0.10;99.90;;;;;;5016061;28;20650;-76
2021/04/07 02:25:00;;;;;;;2.33;1.67;;;0.30;99.90;;;;;;5030323;28;20120;-75
2021/04/07 02:27:26;;;;;;;2.15;1.60;;;0.50;99.90;;;;;;5035068;28;20105;-77
2021/04/07 02:29:54;;;;;;;2.08;1.70;;;0.30;99.90;;;;;;5039060;28;20126;-76
2021/04/07 02:32:20;;;;;;;2.05;1.40;;;0.10;99.90;;;;;;5032403;28;20082;-76
2021/04/07 02:34:46;;;;;;;6.35;2.15;;;0.10;99.90;;;;;;5031012;28;20180;-77
2021/04/07 02:37:13;;;;;;;2.50;1.95;;;0.00;99.90;;;;;;5016394;28;20168;-76
2021/04/07 02:39:40;;;;;;;2.05;1.77;;;0.10;99.90;;;;;;5034990;28;20151;-76
2021/04/07 02:42:07;;;;;;;2.28;2.00;;;0.10;99.90;;;;;;5014173;28;20116;-76
2021/04/07 02:44:32;;;;;;;2.63;1.88;;;0.10;99.90;;;;;;5035787;28;20502;-77
2021/04/07 02:46:58;;;;;;;2.45;2.20;;;0.30;99.90;;;;;;5040762;28;20212;-76
2021/04/07 02:49:23;;;;;;;3.20;2.00;;;0.30;99.90;;;;;;5039871;28;20463;-76
2021/04/07 02:51:51;;;;;;;4.05;1.92;;;0.30;99.90;;;;;;5017007;28;20100;-76
2021/04/07 02:54:17;;;;;;;2.65;2.25;;;0.30;99.90;;;;;;5030276;28;20623;-76
2021/04/07 02:56:43;;;;;;;2.75;2.08;;;0.30;99.90;;;;;;5025599;28;20165;-76
2021/04/07 02:59:08;;;;;;;8.10;3.13;;;0.30;99.90;;;;;;5018188;28;20169;-76
2021/04/07 03:01:34;;;;;;;3.35;2.22;;;0.30;99.90;;;;;;5028042;28;20104;-77
2021/04/07 03:03:59;;;;;;;3.30;2.17;;;0.50;99.90;;;;;;5032307;28;20155;-76
2021/04/07 03:06:25;;;;;;;2.30;2.10;;;0.30;99.90;;;;;;5048876;28;20070;-77
2021/04/07 03:08:51;;;;;;;3.97;2.42;;;0.40;99.90;;;;;;5036445;28;20078;-76
2021/04/07 03:11:16;;;;;;;3.10;2.50;;;0.30;99.90;;;;;;5039782;28;20086;-76
2021/04/07 03:13:42;;;;;;;3.53;2.17;;;0.20;99.90;;;;;;5041128;28;20082;-76
2021/04/07 03:16:08;;;;;;;4.95;2.65;;;0.30;99.90;;;;;;5033389;28;20078;-77
2021/04/07 03:18:34;;;;;;;2.72;2.47;;;0.50;99.90;;;;;;5034920;28;20082;-76
2021/04/07 03:20:59;;;;;;;3.05;2.13;;;0.20;99.90;;;;;;5033450;28;20097;-76
2021/04/07 03:23:25;;;;;;;2.60;2.08;;;0.20;99.90;;;;;;5016751;28;20084;-77
2021/04/07 03:25:50;;;;;;;2.20;2.00;;;0.40;99.90;;;;;;5033715;28;20110;-77
2021/04/07 03:28:16;;;;;;;4.30;2.25;;;0.20;99.90;;;;;;5041112;28;20078;-76
2021/04/07 03:30:51;;;;;;;4.18;2.50;;;0.20;99.90;;;;;;5034169;28;20097;-76
2021/04/07 03:33:21;;;;;;;3.40;2.50;;;0.40;99.90;;;;;;5041855;28;20088;-76
2021/04/07 03:35:48;;;;;;;4.18;2.63;;;0.30;99.90;;;;;;5030573;28;20605;-76
2021/04/07 03:38:14;;;;;;;3.42;3.13;;;0.20;99.90;;;;;;5033091;28;20431;-76
2021/04/07 03:40:41;;;;;;;5.43;3.17;;;0.30;99.90;;;;;;5033024;28;20098;-76
2021/04/07 03:43:08;;;;;;;4.30;3.05;;;0.20;99.90;;;;;;5014747;28;20070;-76
2021/04/07 03:45:34;;;;;;;3.53;2.95;;;0.30;99.90;;;;;;5048651;28;20097;-75
2021/04/07 03:47:59;;;;;;;5.35;3.20;;;0.10;99.90;;;;;;5048982;28;20144;-76
2021/04/07 03:50:25;;;;;;;4.07;3.03;;;0.20;99.90;;;;;;5033308;28;20093;-76
2021/04/07 03:52:51;;;;;;;3.63;2.20;;;0.10;99.90;;;;;;5048351;28;20069;-76
2021/04/07 03:55:17;;;;;;;3.75;2.65;;;0.00;99.90;;;;;;5033079;28;20131;-75
2021/04/07 03:57:42;;;;;;;4.05;2.58;;;-0.10;99.90;;;;;;5017884;28;20078;-75
2021/04/07 04:00:09;;;;;;;4.18;2.78;;;-0.10;99.90;;;;;;5041358;28;20105;-76
2021/04/07 04:02:34;;;;;;;3.60;2.83;;;-0.20;99.90;;;;;;5044552;28;20780;-76
2021/04/07 04:05:00;;;;;;;6.63;3.25;;;-0.20;99.90;;;;;;5038822;28;20152;-76
2021/04/07 04:07:25;;;;;;;3.28;2.70;;;-0.20;99.90;;;;;;5032068;28;20088;-76
2021/04/07 04:09:51;;;;;;;4.05;3.17;;;0.00;99.90;;;;;;5044519;28;20139;-76
2021/04/07 04:12:16;;;;;;;5.13;3.53;;;0.10;99.90;;;;;;5052355;28;20069;-76
2021/04/07 04:14:42;;;;;;;5.88;3.03;;;0.10;99.90;;;;;;5018779;28;20070;-76
2021/04/07 04:17:07;;;;;;;3.45;3.00;;;0.10;99.90;;;;;;5039884;28;20077;-76
2021/04/07 04:19:33;;;;;;;2.80;2.50;;;0.10;99.90;;;;;;5035428;28;20093;-76
2021/04/07 04:22:01;;;;;;;4.00;2.75;;;0.00;99.90;;;;;;5033688;28;20096;-76
2021/04/07 04:24:26;;;;;;;4.47;2.65;;;0.20;99.90;;;;;;5030087;28;20429;-76
2021/04/07 04:26:52;;;;;;;5.38;2.95;;;0.00;99.90;;;;;;5032499;28;20088;-76
2021/04/07 04:29:17;;;;;;;6.88;3.22;;;0.10;99.90;;;;;;5037191;28;20069;-76
2021/04/07 04:31:43;;;;;;;4.40;3.08;;;0.10;99.90;;;;;;5032036;28;20556;-75
2021/04/07 04:34:09;;;;;;;3.20;2.63;;;0.20;99.90;;;;;;5045335;28;20816;-76
2021/04/07 04:36:34;;;;;;;3.92;2.67;;;0.20;99.90;;;;;;5036181;28;20078;-76
2021/04/07 04:39:00;;;;;;;4.90;2.75;;;0.30;99.90;;;;;;5035649;28;20090;-76
2021/04/07 04:41:25;;;;;;;3.13;2.72;;;0.10;99.90;;;;;;5046617;28;20093;-76
2021/04/07 04:43:51;;;;;;;5.15;2.92;;;0.10;99.90;;;;;;5033824;28;20185;-76
2021/04/07 04:46:16;;;;;;;3.10;2.42;;;0.10;99.90;;;;;;5042240;28;20077;-76
2021/04/07 04:48:42;;;;;;;6.93;4.25;;;0.10;99.90;;;;;;5037170;28;20451;-76
2021/04/07 04:51:07;;;;;;;8.55;3.63;;;0.10;99.90;;;;;;5041380;28;20572;-76
2021/04/07 04:53:33;;;;;;;3.80;3.10;;;-0.10;99.90;;;;;;5031476;28;20177;-76
2021/04/07 04:55:59;;;;;;;3.75;2.78;;;0.00;99.90;;;;;;5036612;28;20211;-75
2021/04/07 04:58:24;;;;;;;3.63;3.17;;;0.00;99.90;;;;;;5050431;28;20078;-76
2021/04/07 05:00:50;;;;;;;7.25;6.65;;;-0.10;99.90;;;;;;5041472;28;20093;-76
2021/04/07 05:03:15;;;;;;;3.67;3.00;;;-0.20;99.90;;;;;;5022389;28;20074;-76
2021/04/07 05:05:41;;;;;;;4.00;2.88;;;-0.20;99.90;;;;;;5041849;28;20104;-77
2021/04/07 05:08:06;;;;;;;3.75;3.28;;;-0.10;99.90;;;;;;5024688;28;20104;-76
2021/04/07 05:10:32;;;;;;;3.55;3.03;;;-0.10;99.90;;;;;;5041787;28;20744;-76
2021/04/07 05:12:58;;;;;;;15.07;7.22;;;-0.20;99.90;;;;;;5049184;28;20077;-76
2021/04/07 05:15:23;;;;;;;7.78;4.22;;;-0.30;99.90;;;;;;5050920;28;20207;-76
2021/04/07 05:17:50;;;;;;;3.50;3.00;;;-0.30;99.90;;;;;;5040018;28;20090;-76
2021/04/07 05:20:15;;;;;;;5.97;4.00;;;-0.30;99.90;;;;;;5038192;28;20163;-76
2021/04/07 05:22:41;;;;;;;3.65;3.28;;;-0.30;99.90;;;;;;5029928;28;20528;-76
2021/04/07 05:25:07;;;;;;;4.78;4.13;;;-0.20;99.90;;;;;;5043658;28;20080;-76
2021/04/07 05:27:33;;;;;;;4.40;2.80;;;-0.20;99.90;;;;;;5035514;28;20161;-76
2021/04/07 05:29:58;;;;;;;3.95;3.20;;;-0.10;99.90;;;;;;5038372;28;20570;-75
2021/04/07 05:32:24;;;;;;;4.38;3.40;;;-0.20;99.90;;;;;;5041165;28;20094;-76
2021/04/07 05:34:50;;;;;;;3.88;3.22;;;-0.10;99.90;;;;;;5030113;28;20084;-75
2021/04/07 05:37:15;;;;;;;5.35;3.60;;;0.10;99.90;;;;;;5011972;28;20532;-76
2021/04/07 05:39:41;;;;;;;6.03;3.65;;;0.10;99.90;;;;;;5030360;28;20231;-76
2021/04/07 05:42:06;;;;;;;4.47;3.30;;;0.00;99.90;;;;;;5043225;28;20084;-76
2021/04/07 05:44:32;;;;;;;4.25;3.28;;;-0.10;99.90;;;;;;5050536;28;20759;-76
2021/04/07 05:46:58;;;;;;;4.85;3.28;;;0.00;99.90;;;;;;5026946;28;20078;-76
2021/04/07 05:49:27;;;;;;;3.58;3.25;;;-0.10;99.90;;;;;;5036543;28;20531;-76
2021/04/07 05:51:53;;;;;;;4.18;3.67;;;-0.10;99.90;;;;;;5042577;28;20110;-76
2021/04/07 05:54:19;;;;;;;8.32;3.95;;;-0.20;99.90;;;;;;5031532;28;20080;-76
2021/04/07 05:56:44;;;;;;;5.68;3.60;;;-0.20;99.90;;;;;;5029719;28;21074;-76
2021/04/07 05:59:10;;;;;;;4.30;3.47;;;-0.10;99.90;;;;;;5018124;28;20069;-76
2021/04/07 06:01:35;;;;;;;4.75;4.32;;;-0.10;99.90;;;;;;5038717;28;20102;-76
2021/04/07 06:04:01;;;;;;;4.20;3.40;;;-0.20;99.90;;;;;;5013732;28;20074;-75
2021/04/07 06:06:26;;;;;;;5.90;3.80;;;-0.20;99.90;;;;;;5046060;28;20074;-77
2021/04/07 06:08:52;;;;;;;5.18;3.03;;;-0.20;99.90;;;;;;5042677;28;20115;-76
2021/04/07 06:11:18;;;;;;;4.13;3.28;;;-0.20;99.90;;;;;;5035227;28;20093;-76
2021/04/07 06:13:45;;;;;;;5.35;3.58;;;-0.30;99.90;;;;;;5048352;28;20104;-76
2021/04/07 06:16:11;;;;;;;4.88;3.53;;;-0.20;99.90;;;;;;5048054;28;20207;-77
2021/04/07 06:18:37;;;;;;;4.38;3.50;;;-0.10;99.90;;;;;;5041870;28;20088;-76
2021/04/07 06:21:03;;;;;;;4.03;3.25;;;0.00;99.90;;;;;;5022719;28;20098;-75
2021/04/07 06:23:28;;;;;;;4.43;3.60;;;0.00;99.90;;;;;;5040134;28;20073;-76
2021/04/07 06:25:54;;;;;;;7.05;3.83;;;0.10;99.90;;;;;;5047553;28;20188;-76
2021/04/07 06:28:19;;;;;;;5.18;3.30;;;0.20;99.90;;;;;;5048566;28;20077;-76
2021/04/07 06:30:45;;;;;;;3.45;3.15;;;0.20;99.90;;;;;;5025573;28;20188;-77
2021/04/07 06:33:27;;;;;;;6.43;3.25;;;0.20;99.90;;;;;;5036698;28;20088;-75
2021/04/07 06:36:04;;;;;;;4.72;2.88;;;0.00;99.90;;;;;;5021406;28;20088;-76
2021/04/07 06:38:31;;;;;;;6.43;3.28;;;0.10;99.90;;;;;;5029795;28;20084;-76
2021/04/07 06:41:00;;;;;;;23.85;10.00;;;0.20;99.90;;;;;;5011781;28;20106;-76
2021/04/07 06:43:31;;;;;;;6.18;4.45;;;0.30;99.90;;;;;;5027188;28;20471;-75
2021/04/07 06:45:58;;;;;;;5.90;3.50;;;0.10;99.90;;;;;;5034291;28;20085;-76
2021/04/07 06:48:24;;;;;;;3.58;3.25;;;0.00;99.90;;;;;;5033957;28;20181;-76
2021/04/07 06:50:52;;;;;;;7.25;3.42;;;0.00;99.90;;;;;;5020138;28;20814;-77
2021/04/07 06:53:19;;;;;;;5.28;3.40;;;0.00;99.90;;;;;;5036697;28;20155;-76
2021/04/07 06:55:45;;;;;;;3.60;3.00;;;0.10;99.90;;;;;;5040448;28;20084;-76
2021/04/07 06:58:11;;;;;;;5.25;3.75;;;0.00;99.90;;;;;;5040613;28;20098;-76
2021/04/07 07:00:38;;;;;;;3.80;2.97;;;0.10;99.90;;;;;;5032689;28;20101;-76
2021/04/07 07:03:06;;;;;;;3.70;3.28;;;0.10;99.90;;;;;;5034925;28;20065;-76
2021/04/07 07:05:35;;;;;;;3.92;3.08;;;0.20;99.90;;;;;;5034611;28;20139;-76
2021/04/07 07:08:05;;;;;;;4.63;3.30;;;0.20;99.90;;;;;;5023164;28;20077;-76
2021/04/07 07:10:36;;;;;;;3.65;3.00;;;0.20;99.90;;;;;;5033561;28;20217;-76
2021/04/07 07:13:01;;;;;;;7.00;3.17;;;0.20;99.90;;;;;;5049366;28;20164;-76
2021/04/07 07:15:28;;;;;;;3.70;3.00;;;0.20;99.90;;;;;;5020522;28;20161;-75
2021/04/07 07:17:53;;;;;;;5.43;3.60;;;0.40;99.90;;;;;;5041811;28;20539;-76
2021/04/07 07:20:34;;;;;;;3.53;2.90;;;0.50;99.90;;;;;;5036622;28;20200;-76
2021/04/07 07:23:00;;;;;;;3.45;2.92;;;0.50;99.90;;;;;;5027707;28;20438;-76
2021/04/07 07:25:27;;;;;;;4.70;3.08;;;0.30;99.90;;;;;;5042551;28;20611;-76
2021/04/07 07:28:01;;;;;;;7.35;3.15;;;0.40;99.90;;;;;;5042718;28;20093;-75
2021/04/07 07:30:43;;;;;;;4.75;3.08;;;0.40;99.90;;;;;;5035505;28;20093;-76
2021/04/07 07:33:19;;;;;;;4.03;2.78;;;0.40;99.90;;;;;;5038562;28;20454;-76
2021/04/07 07:35:47;;;;;;;4.25;3.38;;;0.40;99.90;;;;;;5048615;28;20108;-76
2021/04/07 07:38:23;;;;;;;5.05;3.53;;;0.40;99.90;;;;;;5047010;28;20112;-76
2021/04/07 07:40:57;;;;;;;6.00;4.05;;;0.50;99.90;;;;;;5046870;28;20606;-75
2021/04/07 07:43:22;;;;;;;4.63;3.50;;;0.50;99.90;;;;;;5044492;28;20485;-74
2021/04/07 07:45:48;;;;;;;4.68;3.40;;;0.40;99.90;;;;;;5048156;28;20157;-76
2021/04/07 07:48:21;;;;;;;4.40;2.40;;;0.40;99.90;;;;;;5035815;28;20127;-76
2021/04/07 07:50:48;;;;;;;3.55;2.67;;;0.40;99.90;;;;;;5033708;28;20104;-76
2021/04/07 07:53:23;;;;;;;6.25;3.38;;;0.50;99.90;;;;;;5041476;28;20085;-76
2021/04/07 07:55:50;;;;;;;;;;;0.40;99.90;;;;;;5046789;28;20524;-76
2021/04/07 07:58:15;;;;;;;4.30;2.60;;;0.60;99.90;;;;;;5041509;28;20083;-75
2021/04/07 08:00:41;;;;;;;7.70;3.75;;;0.70;99.90;;;;;;5034582;28;20201;-76
2021/04/07 08:03:11;;;;;;;4.75;3.13;;;0.70;99.90;;;;;;5021238;28;20112;-75
2021/04/07 08:05:44;;;;;;;3.45;2.75;;;0.70;99.90;;;;;;5040833;28;20069;-75
2021/04/07 08:08:11;;;;;;;7.97;3.40;;;0.80;99.90;;;;;;5042306;28;20084;-75
2021/04/07 08:10:38;;;;;;;4.55;3.20;;;0.90;99.90;;;;;;5041430;28;20569;-77
2021/04/07 08:13:08;;;;;;;7.30;3.03;;;0.90;99.90;;;;;;5037452;28;20074;-76
2021/04/07 08:15:34;;;;;;;4.22;3.00;;;1.00;99.90;;;;;;5028268;28;20078;-75
2021/04/07 08:18:00;;;;;;;9.38;3.65;;;1.10;99.90;;;;;;5040638;28;20462;-78
2021/04/07 08:20:26;;;;;;;6.97;3.90;;;1.20;99.90;;;;;;5035908;28;20097;-77
2021/04/07 08:22:54;;;;;;;6.78;4.07;;;1.20;99.90;;;;;;5039310;28;20081;-76
2021/04/07 08:25:20;;;;;;;5.65;3.53;;;1.20;99.90;;;;;;5047393;28;20085;-75
2021/04/07 08:27:50;;;;;;;3.30;3.00;;;1.10;99.90;;;;;;5014246;28;20082;-76
2021/04/07 08:30:16;;;;;;;4.72;3.08;;;1.00;99.90;;;;;;5030912;28;20117;-76
2021/04/07 08:32:45;;;;;;;4.30;3.45;;;1.10;99.90;;;;;;5041022;28;20081;-76
2021/04/07 08:35:13;;;;;;;5.88;3.83;;;1.20;99.90;;;;;;5014912;28;20456;-77
2021/04/07 08:37:38;;;;;;;3.78;3.10;;;1.40;99.90;;;;;;5038886;28;20152;-76
2021/04/07 08:40:15;;;;;;;5.10;3.13;;;1.30;99.90;;;;;;5048884;28;20189;-78
2021/04/07 08:42:42;;;;;;;4.55;2.88;;;1.40;99.90;;;;;;5031807;28;20065;-78
2021/04/07 08:45:12;;;;;;;4.55;3.25;;;1.40;99.90;;;;;;5034498;28;20070;-78
2021/04/07 08:47:50;;;;;;;4.60;3.20;;;1.40;99.90;;;;;;5022110;28;20086;-77
2021/04/07 08:50:16;;;;;;;5.95;3.00;;;1.30;99.90;;;;;;5033226;28;20093;-78
2021/04/07 08:52:43;;;;;;;3.45;2.63;;;1.30;99.90;;;;;;5042445;28;20078;-78
2021/04/07 08:55:16;;;;;;;5.25;3.50;;;1.20;99.90;;;;;;5048031;28;20184;-78
2021/04/07 08:57:42;;;;;;;6.90;3.17;;;1.30;99.90;;;;;;5039818;28;20077;-77
2021/04/07 09:00:16;;;;;;;5.97;2.45;;;1.20;99.90;;;;;;5030006;28;20101;-77
2021/04/07 09:03:01;;;;;;;5.88;3.33;;;1.00;99.90;;;;;;5049049;28;20081;-78
2021/04/07 09:05:29;;;;;;;5.22;3.42;;;1.10;99.90;;;;;;5030321;28;20097;-79
2021/04/07 09:07:56;;;;;;;7.20;3.10;;;1.30;99.90;;;;;;5019548;28;20081;-78
2021/04/07 09:10:22;;;;;;;6.22;3.63;;;1.30;99.90;;;;;;5025730;28;20275;-77
2021/04/07 09:12:49;;;;;;;57.78;19.52;;;1.20;99.90;;;;;;5026603;28;20085;-78
2021/04/07 09:15:21;;;;;;;5.97;3.17;;;1.30;99.90;;;;;;5040179;28;20106;-77
2021/04/07 09:17:56;;;;;;;4.28;3.40;;;1.50;99.90;;;;;;5038158;28;20895;-77
2021/04/07 09:20:36;;;;;;;4.28;3.00;;;1.70;99.90;;;;;;5042163;28;20601;-77
2021/04/07 09:23:22;;;;;;;4.18;3.22;;;1.70;99.90;;;;;;5021697;28;20087;-76
2021/04/07 09:25:54;;;;;;;5.38;3.17;;;1.80;99.90;;;;;;5047479;28;20428;-77
2021/04/07 09:28:34;;;;;;;4.60;3.40;;;1.70;99.90;;;;;;5036214;28;20070;-79
2021/04/07 09:31:16;;;;;;;5.55;2.88;;;1.70;99.90;;;;;;5042326;28;20128;-77
2021/04/07 09:33:48;;;;;;;3.50;3.13;;;1.70;99.90;;;;;;5026348;28;20660;-75
2021/04/07 09:36:16;;;;;;;3.28;1.60;;;1.60;99.90;;;;;;5049033;28;20679;-74
2021/04/07 09:38:47;;;;;;;5.55;2.35;;;1.40;99.90;;;;;;5034982;28;20074;-75
2021/04/07 09:41:18;;;;;;;5.05;2.33;;;1.30;99.90;;;;;;5038104;28;20101;-77
2021/04/07 09:43:44;;;;;;;5.68;1.90;;;1.40;99.90;;;;;;5032051;28;20101;-74
2021/04/07 09:46:11;;;;;;;4.50;2.20;;;1.10;99.90;;;;;;5029662;28;20163;-77
2021/04/07 09:48:42;;;;;;;2.25;1.38;;;1.20;99.90;;;;;;5030908;28;20128;-77
2021/04/07 09:51:31;;;;;;;8.95;2.17;;;1.40;99.90;;;;;;5043030;28;20090;-77
2021/04/07 09:54:09;;;;;;;2.63;1.98;;;1.10;99.90;;;;;;5017681;28;20082;-77
2021/04/07 09:57:03;;;;;;;5.47;2.22;;;1.00;99.90;;;;;;5023421;28;20093;-76
2021/04/07 09:59:44;;;;;;;3.33;2.53;;;0.80;99.90;;;;;;5019766;28;20082;-76
2021/04/07 10:02:13;;;;;;;1.80;1.70;;;0.80;99.90;;;;;;5027932;28;20073;-76
2021/04/07 10:04:42;;;;;;;3.97;1.90;;;0.90;99.90;;;;;;5026399;28;20132;-77
2021/04/07 10:07:11;;;;;;;3.67;1.65;;;0.80;99.90;;;;;;5016837;28;20466;-77
2021/04/07 10:09:37;;;;;;;2.80;1.95;;;0.90;99.90;;;;;;5031518;28;20113;-75
2021/04/07 10:12:05;;;;;;;5.18;1.88;;;1.10;99.90;;;;;;5039581;28;20097;-77
2021/04/07 10:14:31;;;;;;;2.65;2.08;;;1.10;99.90;;;;;;5042389;28;20164;-77
2021/04/07 10:16:56;;;;;;;3.15;2.28;;;1.10;99.90;;;;;;5036426;28;20156;-76
2021/04/07 10:19:30;;;;;;;3.78;2.03;;;1.10;99.90;;;;;;5038949;28;20120;-76
2021/04/07 10:22:00;;;;;;;4.70;2.25;;;1.40;99.90;;;;;;5039291;28;20633;-76
2021/04/07 10:24:26;;;;;;;4.72;2.60;;;1.60;99.90;;;;;;5039227;28;20076;-75
2021/04/07 10:26:51;;;;;;;4.95;2.63;;;1.70;99.90;;;;;;5059207;28;20076;-76
2021/04/07 10:29:22;;;;;;;3.30;2.70;;;1.70;99.90;;;;;;5037572;28;20115;-76
2021/04/07 10:31:53;;;;;;;5.43;2.90;;;1.90;99.90;;;;;;5039525;28;20097;-76
2021/04/07 10:34:31;;;;;;;6.38;3.17;;;1.90;99.90;;;;;;5038472;28;20074;-76
2021/04/07 10:36:57;;;;;;;4.32;2.92;;;1.90;99.90;;;;;;5025831;28;20081;-74
2021/04/07 10:39:23;;;;;;;6.22;3.10;;;2.00;99.90;;;;;;5036424;28;20084;-76
2021/04/07 10:41:50;;;;;;;7.05;3.17;;;2.00;99.90;;;;;;5051596;28;20085;-76
2021/04/07 10:44:27;;;;;;;7.63;2.88;;;2.10;99.90;;;;;;5032630;28;20546;-75
2021/04/07 10:46:53;;;;;;;5.05;2.80;;;2.00;99.90;;;;;;5035516;28;20120;-76
2021/04/07 10:49:21;;;;;;;4.22;2.60;;;1.80;99.90;;;;;;5033124;28;20659;-76
2021/04/07 10:52:01;;;;;;;4.05;2.95;;;1.60;99.90;;;;;;5014418;28;20104;-76
2021/04/07 10:54:28;;;;;;;3.65;2.38;;;1.80;99.90;;;;;;5028753;28;20610;-76
2021/04/07 10:57:01;;;;;;;2.72;2.45;;;1.90;99.90;;;;;;5031780;28;20070;-76
2021/04/07 10:59:31;;;;;;;4.20;2.92;;;2.10;99.90;;;;;;5022747;28;20100;-77
2021/04/07 11:01:58;;;;;;;4.05;2.53;;;2.30;99.90;;;;;;5035326;28;20098;-77
2021/04/07 11:04:26;;;;;;;4.43;3.10;;;2.30;99.90;;;;;;5029609;28;20594;-76
2021/04/07 11:06:58;;;;;;;3.22;2.17;;;2.20;99.90;;;;;;5028965;28;20074;-76
2021/04/07 11:09:26;;;;;;;1.98;1.75;;;2.20;99.90;;;;;;5046006;28;20066;-77
2021/04/07 11:11:54;;;;;;;2.65;1.30;;;2.10;99.90;;;;;;5032661;28;20199;-77
2021/04/07 11:14:20;;;;;;;2.33;1.58;;;2.30;99.90;;;;;;5047371;28;20076;-78
2021/04/07 11:16:58;;;;;;;5.88;1.75;;;2.10;99.90;;;;;;5030976;28;20539;-79
2021/04/07 11:19:31;;;;;;;4.22;1.90;;;2.20;99.90;;;;;;5038666;28;20077;-79
2021/04/07 11:21:57;;;;;;;5.07;2.35;;;2.20;99.90;;;;;;5036621;28;20102;-79
2021/04/07 11:24:22;;;;;;;6.25;2.15;;;2.40;99.90;;;;;;5017714;28;20084;-77
2021/04/07 11:26:48;;;;;;;9.00;2.75;;;2.50;99.90;;;;;;5051049;28;20143;-78
2021/04/07 11:29:13;;;;;;;5.25;2.25;;;2.70;99.90;;;;;;5041072;28;20208;-77
2021/04/07 11:31:39;;;;;;;7.82;2.58;;;2.60;99.90;;;;;;5051282;28;20112;-77
2021/04/07 11:34:08;;;;;;;7.85;2.70;;;2.60;99.90;;;;;;5019474;28;20252;-77
2021/04/07 11:36:52;;;;;;;5.80;2.45;;;2.80;99.90;;;;;;5036570;28;20074;-75
2021/04/07 11:46:48;;;;;;;2.15;1.90;;;2.90;99.90;;;;;;5037300;28;20160;-79
2021/04/07 11:49:13;;;;;;;1.77;1.30;;;3.20;99.90;;;;;;5033140;28;20077;-75
2021/04/07 11:51:41;;;;;;;2.75;1.60;;;3.20;99.90;;;;;;5052075;28;20097;-76
2021/04/07 11:54:09;;;;;;;3.75;1.40;;;3.20;99.90;;;;;;5048720;28;20078;-78
2021/04/07 11:56:45;;;;;;;4.15;1.40;;;3.00;99.90;;;;;;5042104;28;20092;-78
2021/04/07 11:59:19;;;;;;;2.95;1.42;;;2.40;99.90;;;;;;5048580;28;20109;-77
2021/04/07 12:01:50;;;;;;;1.45;1.33;;;2.40;99.90;;;;;;5050458;28;20104;-78
2021/04/07 12:04:16;;;;;;;2.60;1.30;;;2.30;99.90;;;;;;5039507;28;20100;-77
2021/04/07 12:06:42;;;;;;;3.47;1.52;;;2.20;99.90;;;;;;5020560;28;20082;-77
2021/04/07 12:09:08;;;;;;;3.03;2.15;;;2.30;99.90;;;;;;5024759;28;20131;-77
2021/04/07 12:11:35;;;;;;;3.47;1.90;;;2.50;99.90;;;;;;5024178;28;20093;-76
2021/04/07 12:14:02;;;;;;;2.85;1.58;;;2.80;99.90;;;;;;5042603;28;20090;-77
2021/04/07 12:16:29;;;;;;;3.17;1.50;;;3.00;99.90;;;;;;5039492;28;20450;-76
2021/04/07 12:18:55;;;;;;;2.17;0.98;;;3.20;99.90;;;;;;5040152;28;20087;-76
2021/04/07 12:21:20;;;;;;;3.90;0.82;;;3.40;99.90;;;;;;5016057;28;20100;-76
2021/04/07 12:23:47;;;;;;;5.85;1.00;;;3.60;99.90;;;;;;5018822;28;20482;-77
2021/04/07 12:26:16;;;;;;;1.63;1.00;;;3.50;98.10;;;;;;5026272;28;20085;-76
2021/04/07 12:28:43;;;;;;;2.35;1.52;;;3.20;98.60;;;;;;5018871;28;20104;-78
2021/04/07 12:31:12;;;;;;;2.92;0.98;;;3.30;99.00;;;;;;5021379;28;20101;-78
2021/04/07 12:33:38;;;;;;;1.50;0.93;;;3.50;99.90;;;;;;5045009;28;20446;-78
2021/04/07 12:36:06;;;;;;;6.32;2.47;;;3.30;99.80;;;;;;5043908;28;20516;-78
2021/04/07 12:38:33;;;;;;;5.38;2.53;;;3.30;98.90;;;;;;5045820;28;20074;-77
2021/04/07 12:41:00;;;;;;;2.20;1.30;;;3.30;99.90;;;;;;5041993;28;20184;-77
2021/04/07 12:43:26;;;;;;;4.25;2.33;;;3.30;99.90;;;;;;5049567;28;20078;-77
2021/04/07 12:45:52;;;;;;;5.32;1.40;;;3.20;99.20;;;;;;5026590;28;20077;-77
2021/04/07 12:48:19;;;;;;;1.80;1.00;;;3.10;99.90;;;;;;5039737;28;20077;-76
2021/04/07 12:50:45;;;;;;;4.00;1.63;;;3.00;99.90;;;;;;5054790;28;20081;-77
2021/04/07 12:53:11;;;;;;;4.53;1.60;;;2.90;99.90;;;;;;5044857;28;20070;-76
2021/04/07 12:55:37;;;;;;;4.78;1.20;;;2.90;99.90;;;;;;5024161;28;20497;-75
2021/04/07 12:58:04;;;;;;;3.47;1.52;;;2.90;99.90;;;;;;5039979;28;20086;-76
2021/04/07 13:00:30;;;;;;;2.33;1.30;;;2.90;99.90;;;;;;5039690;28;20094;-76
2021/04/07 13:02:56;;;;;;;1.98;1.33;;;3.30;99.90;;;;;;5043300;28;20066;-77
2021/04/07 13:05:22;;;;;;;3.80;1.33;;;3.40;99.90;;;;;;5021648;28;20603;-77